Avalon — PBSF — position and weather

sailwx.info

Track history (hours):
 
Tides and Currents Weather Stations Pressure Air Temp Water Temp Dewpoint Dewpoint Depression Visibility Wind Speed Wind Dir Waves Ship Positions

Avalon

Last reported at 2015-Jan-30 06:33 UTC. Time now 2015-Feb-01 10:12 UTC.
Position N 51°21' W 003°23'.

Length 89 m; draft 3.5 m.

Type: Cargo ship. MMSI: 246578000.

Date/timePositionNaut miles runAvg speedWind from/ knotsBaromVisibWave heightAir tempDewpointWater temp
2015-Jan-30 06:33N 51°21' W 003°23'1111.3
2015-Jan-30 05:33N 51°25' W 003°06'1212.4
2015-Jan-30 04:33N 51°30' W 002°48'1010.5
2015-Jan-30 03:33N 51°38' W 002°38'7 7.1
2015-Jan-30 02:31N 51°43' W 002°29'0 0.0
2015-Jan-30 01:33N 51°43' W 002°29'0 0.1
2015-Jan-29 22:33N 51°43' W 002°29'0 0.0
2015-Jan-29 21:33N 51°43' W 002°29'0 0.0
2015-Jan-29 20:33N 51°43' W 002°29'0 0.0
2015-Jan-29 19:33N 51°43' W 002°29'0 0.0
2015-Jan-29 18:33N 51°43' W 002°29'0 0.0
2015-Jan-29 17:33N 51°43' W 002°29'0 0.0
2015-Jan-29 16:33N 51°43' W 002°29'0 0.0
2015-Jan-29 15:33N 51°43' W 002°29'0 0.0
2015-Jan-29 14:34N 51°43' W 002°29'0 0.0
2015-Jan-29 13:33N 51°43' W 002°29'0 0.0
2015-Jan-29 12:33N 51°43' W 002°29'0 0.0
2015-Jan-29 11:33N 51°43' W 002°29'0 0.0
2015-Jan-29 10:33N 51°43' W 002°29'0 0.0
2015-Jan-29 09:21N 51°43' W 002°29'0 0.0
2015-Jan-29 08:15N 51°43' W 002°29'0 0.0
2015-Jan-29 07:21N 51°43' W 002°29'0 0.0
2015-Jan-29 06:33N 51°43' W 002°29'0 0.0
2015-Jan-29 05:15N 51°43' W 002°29'0 0.0
2015-Jan-29 04:21N 51°43' W 002°29'0 0.0
2015-Jan-29 03:33N 51°43' W 002°29'0 0.0
2015-Jan-29 02:12N 51°43' W 002°29'0 0.0
2015-Jan-29 01:21N 51°43' W 002°29'0 0.0
2015-Jan-29 00:33N 51°43' W 002°29'0 0.0
2015-Jan-28 23:33N 51°43' W 002°29'0 0.0
2015-Jan-28 22:33N 51°43' W 002°29'0 0.0
2015-Jan-28 21:33N 51°43' W 002°29'0 0.0
2015-Jan-28 20:33N 51°43' W 002°29'0 0.0
2015-Jan-28 19:33N 51°43' W 002°29'0 0.0
2015-Jan-28 18:33N 51°43' W 002°29'0 0.0
2015-Jan-28 17:33N 51°43' W 002°29'0 0.0
2015-Jan-28 16:30N 51°43' W 002°29'0 0.0
2015-Jan-28 15:30N 51°43' W 002°29'0 0.0
2015-Jan-28 14:33N 51°43' W 002°29'0 0.0
2015-Jan-28 13:33N 51°43' W 002°29'0 0.0
2015-Jan-28 12:33N 51°43' W 002°29'0 0.0
2015-Jan-28 11:33N 51°43' W 002°29'0 0.0
2015-Jan-28 10:27N 51°43' W 002°29'0 0.0
2015-Jan-28 09:33N 51°43' W 002°29'0 0.0
2015-Jan-28 07:33N 51°43' W 002°29'0 0.0
2015-Jan-28 06:33N 51°43' W 002°29'0 0.0
2015-Jan-28 05:33N 51°43' W 002°29'0 0.0
2015-Jan-28 04:33N 51°43' W 002°29'0 0.0
2015-Jan-28 03:09N 51°43' W 002°29'0 0.3
2015-Jan-28 02:33N 51°43' W 002°29'0 0.0
2015-Jan-28 01:33N 51°43' W 002°29'2 1.9
2015-Jan-28 00:34N 51°41' W 002°30'6 6.2
2015-Jan-27 23:32N 51°38' W 002°39'9 8.8
2015-Jan-27 22:33N 51°30' W 002°45'1110.8
2015-Jan-27 21:33N 51°26' W 003°01'1111.4
2015-Jan-27 20:33N 51°21' W 003°17'85 8.5
2015-Jan-27 10:33N 50°41' W 005°16'1010.3
2015-Jan-27 09:33N 50°34' W 005°28'  
Track history (hours):
 
Tides and Currents Weather Stations Pressure Air Temp Water Temp Dewpoint Dewpoint Depression Visibility Wind Speed Wind Dir Waves Ship Positions

Avalon

Last reported at 2015-Jan-30 06:33 UTC. Time now 2015-Feb-01 10:12 UTC.
Position N 51°21' W 003°23'.

Length 89 m; draft 3.5 m.

Type: Cargo ship. MMSI: 246578000.

Date/timePositionNaut miles runAvg speedWind from/ knotsBaromVisibWave heightAir tempDewpointWater temp
2015-Jan-30 06:33N 51°21' W 003°23'1111.3
2015-Jan-30 05:33N 51°25' W 003°06'1212.4
2015-Jan-30 04:33N 51°30' W 002°48'1010.5
2015-Jan-30 03:33N 51°38' W 002°38'7 7.1
2015-Jan-30 02:31N 51°43' W 002°29'0 0.0
2015-Jan-30 01:33N 51°43' W 002°29'0 0.1
2015-Jan-29 22:33N 51°43' W 002°29'0 0.0
2015-Jan-29 21:33N 51°43' W 002°29'0 0.0
2015-Jan-29 20:33N 51°43' W 002°29'0 0.0
2015-Jan-29 19:33N 51°43' W 002°29'0 0.0
2015-Jan-29 18:33N 51°43' W 002°29'0 0.0
2015-Jan-29 17:33N 51°43' W 002°29'0 0.0
2015-Jan-29 16:33N 51°43' W 002°29'0 0.0
2015-Jan-29 15:33N 51°43' W 002°29'0 0.0
2015-Jan-29 14:34N 51°43' W 002°29'0 0.0
2015-Jan-29 13:33N 51°43' W 002°29'0 0.0
2015-Jan-29 12:33N 51°43' W 002°29'0 0.0
2015-Jan-29 11:33N 51°43' W 002°29'0 0.0
2015-Jan-29 10:33N 51°43' W 002°29'0 0.0
2015-Jan-29 09:21N 51°43' W 002°29'0 0.0
2015-Jan-29 08:15N 51°43' W 002°29'0 0.0
2015-Jan-29 07:21N 51°43' W 002°29'0 0.0
2015-Jan-29 06:33N 51°43' W 002°29'0 0.0
2015-Jan-29 05:15N 51°43' W 002°29'0 0.0
2015-Jan-29 04:21N 51°43' W 002°29'0 0.0
2015-Jan-29 03:33N 51°43' W 002°29'0 0.0
2015-Jan-29 02:12N 51°43' W 002°29'0 0.0
2015-Jan-29 01:21N 51°43' W 002°29'0 0.0
2015-Jan-29 00:33N 51°43' W 002°29'0 0.0
2015-Jan-28 23:33N 51°43' W 002°29'0 0.0
2015-Jan-28 22:33N 51°43' W 002°29'0 0.0
2015-Jan-28 21:33N 51°43' W 002°29'0 0.0
2015-Jan-28 20:33N 51°43' W 002°29'0 0.0
2015-Jan-28 19:33N 51°43' W 002°29'0 0.0
2015-Jan-28 18:33N 51°43' W 002°29'0 0.0
2015-Jan-28 17:33N 51°43' W 002°29'0 0.0
2015-Jan-28 16:30N 51°43' W 002°29'0 0.0
2015-Jan-28 15:30N 51°43' W 002°29'0 0.0
2015-Jan-28 14:33N 51°43' W 002°29'0 0.0
2015-Jan-28 13:33N 51°43' W 002°29'0 0.0
2015-Jan-28 12:33N 51°43' W 002°29'0 0.0
2015-Jan-28 11:33N 51°43' W 002°29'0 0.0
2015-Jan-28 10:27N 51°43' W 002°29'0 0.0
2015-Jan-28 09:33N 51°43' W 002°29'0 0.0
2015-Jan-28 07:33N 51°43' W 002°29'0 0.0
2015-Jan-28 06:33N 51°43' W 002°29'0 0.0
2015-Jan-28 05:33N 51°43' W 002°29'0 0.0
2015-Jan-28 04:33N 51°43' W 002°29'0 0.0
2015-Jan-28 03:09N 51°43' W 002°29'0 0.3
2015-Jan-28 02:33N 51°43' W 002°29'0 0.0
2015-Jan-28 01:33N 51°43' W 002°29'2 1.9
2015-Jan-28 00:34N 51°41' W 002°30'6 6.2
2015-Jan-27 23:32N 51°38' W 002°39'9 8.8
2015-Jan-27 22:33N 51°30' W 002°45'1110.8
2015-Jan-27 21:33N 51°26' W 003°01'1111.4
2015-Jan-27 20:33N 51°21' W 003°17'85 8.5
2015-Jan-27 10:33N 50°41' W 005°16'1010.3
2015-Jan-27 09:33N 50°34' W 005°28'  

Dump ship's entire track history